createdAt,value
2022-08-17T00:00:34.834Z,21.23
2022-08-17T00:03:13.557Z,21.30
2022-08-17T00:05:45.099Z,21.36
2022-08-17T00:08:15.217Z,21.27
2022-08-17T00:10:44.459Z,20.95
2022-08-17T00:13:17.275Z,20.39
2022-08-17T00:15:45.478Z,20.44
2022-08-17T00:19:06.015Z,20.79
2022-08-17T00:21:03.998Z,20.60
2022-08-17T00:23:39.399Z,20.78
2022-08-17T00:26:43.428Z,20.85
2022-08-17T00:29:06.892Z,20.80
2022-08-17T00:31:35.773Z,20.28
2022-08-17T00:34:04.666Z,20.44
2022-08-17T00:36:32.574Z,20.74
2022-08-17T00:39:00.555Z,20.89
2022-08-17T00:41:29.384Z,20.89
2022-08-17T00:44:01.308Z,20.85
2022-08-17T00:46:33.331Z,20.93
2022-08-17T00:49:01.560Z,20.96
2022-08-17T00:51:35.528Z,21.03
2022-08-17T00:54:09.567Z,20.96
2022-08-17T00:56:42.708Z,20.95
2022-08-17T00:59:12.625Z,20.60
2022-08-17T01:01:42.603Z,20.78
2022-08-17T01:04:12.081Z,20.87
2022-08-17T01:06:42.758Z,20.85
2022-08-17T01:09:10.803Z,20.43
2022-08-17T01:11:40.602Z,19.90
2022-08-17T01:14:09.381Z,19.72
2022-08-17T01:16:38.422Z,19.63
2022-08-17T01:19:16.700Z,19.25
2022-08-17T01:21:51.164Z,19.73
2022-08-17T01:24:20.407Z,20.20
2022-08-17T01:26:48.547Z,20.13
2022-08-17T01:29:17.244Z,20.18
2022-08-17T01:31:48.020Z,20.35
2022-08-17T01:34:17.791Z,20.23
2022-08-17T01:36:49.837Z,19.66
2022-08-17T01:39:23.158Z,19.98
2022-08-17T01:41:54.466Z,20.16
2022-08-17T01:44:27.774Z,20.05
2022-08-17T01:46:55.696Z,19.90
2022-08-17T01:49:23.911Z,19.97
2022-08-17T01:51:51.898Z,19.00
2022-08-17T01:54:22.068Z,19.29
2022-08-17T01:56:51.732Z,19.39
2022-08-17T01:59:21.233Z,19.59
2022-08-17T02:01:49.414Z,19.59
2022-08-17T02:04:17.548Z,19.32
2022-08-17T02:06:53.314Z,19.62
2022-08-17T02:09:25.475Z,19.86
2022-08-17T02:11:54.644Z,19.99
2022-08-17T02:14:26.053Z,19.96
2022-08-17T02:16:56.075Z,19.64
2022-08-17T02:19:24.029Z,19.57
2022-08-17T02:21:54.543Z,19.49
2022-08-17T02:24:59.932Z,19.49
2022-08-17T02:27:15.928Z,19.78
2022-08-17T02:29:43.918Z,19.74
2022-08-17T02:32:20.762Z,19.59
2022-08-17T02:34:56.526Z,19.66
2022-08-17T02:37:24.468Z,19.61
2022-08-17T02:39:53.774Z,19.72
2022-08-17T02:42:28.604Z,19.56
2022-08-17T02:44:56.556Z,19.34
2022-08-17T02:47:24.998Z,19.57
2022-08-17T02:49:55.916Z,19.66
2022-08-17T02:52:53.270Z,19.32
2022-08-17T02:55:20.556Z,19.48
2022-08-17T02:57:49.405Z,19.29
2022-08-17T03:00:21.334Z,18.97
2022-08-17T03:02:50.016Z,18.87
2022-08-17T03:05:21.306Z,19.27
2022-08-17T03:07:52.207Z,19.40
2022-08-17T03:10:22.527Z,19.40
2022-08-17T03:12:50.665Z,19.49
2022-08-17T03:15:20.930Z,19.61
2022-08-17T03:17:49.478Z,19.63
2022-08-17T03:20:17.478Z,19.74
2022-08-17T03:22:53.323Z,19.84
2022-08-17T03:25:26.070Z,19.90
2022-08-17T03:27:54.508Z,19.78
2022-08-17T03:30:23.659Z,19.91
2022-08-17T03:32:54.742Z,19.97
2022-08-17T03:35:24.317Z,20.03
2022-08-17T03:38:00.523Z,20.05
2022-08-17T03:40:55.172Z,20.07
2022-08-17T03:43:22.845Z,20.16
2022-08-17T03:46:10.756Z,20.14
2022-08-17T03:49:13.369Z,19.87
2022-08-17T03:51:58.633Z,19.96
2022-08-17T03:54:58.418Z,20.02
2022-08-17T03:57:31.361Z,20.04
2022-08-17T03:59:59.740Z,20.03
2022-08-17T04:02:31.659Z,20.05
2022-08-17T04:05:00.039Z,20.00
2022-08-17T04:07:30.447Z,19.88
2022-08-17T04:09:59.401Z,19.70
2022-08-17T04:12:30.784Z,19.75
2022-08-17T04:14:59.389Z,19.78
2022-08-17T04:17:29.102Z,19.43
2022-08-17T04:19:59.182Z,19.54
2022-08-17T04:22:30.732Z,18.30
2022-08-17T04:25:02.942Z,18.36
2022-08-17T04:27:32.092Z,18.61
2022-08-17T04:29:59.996Z,18.91
2022-08-17T04:32:59.432Z,19.27
2022-08-17T04:35:19.956Z,19.51
2022-08-17T04:37:47.989Z,19.40
2022-08-17T04:40:33.276Z,19.52
2022-08-17T04:43:04.140Z,19.51
2022-08-17T04:45:32.733Z,19.61
2022-08-17T04:48:02.108Z,19.73
2022-08-17T04:50:29.962Z,19.75
2022-08-17T04:52:58.123Z,19.69
2022-08-17T04:55:26.321Z,19.64
2022-08-17T04:57:56.628Z,19.24
2022-08-17T05:00:26.291Z,19.44
2022-08-17T05:02:56.562Z,19.47
2022-08-17T05:05:27.390Z,19.74
2022-08-17T05:07:58.936Z,19.59
2022-08-17T05:10:30.189Z,19.85
2022-08-17T05:13:00.140Z,19.96
2022-08-17T05:15:32.986Z,19.33
2022-08-17T05:18:01.218Z,19.67
2022-08-17T05:20:29.901Z,20.04
2022-08-17T05:22:59.546Z,20.26
2022-08-17T05:25:29.976Z,20.36
2022-08-17T05:28:04.520Z,20.56
2022-08-17T05:30:36.145Z,20.62
2022-08-17T05:33:08.796Z,20.54
2022-08-17T05:35:39.511Z,20.76
2022-08-17T05:38:08.229Z,20.92
2022-08-17T05:40:37.057Z,20.98
2022-08-17T05:43:07.766Z,20.97
2022-08-17T05:45:54.572Z,21.12
2022-08-17T05:48:35.813Z,21.02
2022-08-17T05:51:28.857Z,21.23
2022-08-17T05:54:08.294Z,21.52
2022-08-17T05:56:56.217Z,21.75
2022-08-17T05:59:34.175Z,21.85
2022-08-17T06:02:12.569Z,21.98
2022-08-17T06:04:56.062Z,21.51
2022-08-17T06:07:32.793Z,21.70
2022-08-17T06:10:07.009Z,22.17
2022-08-17T06:13:00.736Z,22.35
2022-08-17T06:15:32.931Z,22.40
2022-08-17T06:18:06.695Z,22.49
2022-08-17T06:20:44.789Z,22.57
2022-08-17T06:23:19.215Z,22.71
2022-08-17T06:25:50.925Z,22.80
2022-08-17T06:28:31.338Z,22.87
2022-08-17T06:31:06.953Z,23.10
2022-08-17T06:33:39.396Z,23.07
2022-08-17T06:36:22.459Z,23.12
2022-08-17T06:39:00.698Z,23.33
2022-08-17T06:41:38.963Z,23.26
2022-08-17T06:44:49.933Z,23.02
2022-08-17T06:47:09.108Z,23.30
2022-08-17T06:49:50.715Z,23.51
2022-08-17T06:52:45.584Z,23.78
2022-08-17T06:55:21.216Z,24.18
2022-08-17T06:57:53.487Z,24.58
2022-08-17T07:00:24.850Z,24.42
2022-08-17T07:02:58.781Z,24.38
2022-08-17T07:05:33.693Z,24.63
2022-08-17T07:08:09.235Z,25.24
2022-08-17T07:10:42.642Z,25.57
2022-08-17T07:13:32.342Z,25.38
2022-08-17T07:16:19.442Z,25.30
2022-08-17T07:18:50.869Z,25.40
2022-08-17T07:21:29.545Z,25.57
2022-08-17T07:24:07.924Z,25.80
2022-08-17T07:26:35.762Z,26.32
2022-08-17T07:29:03.754Z,26.42
2022-08-17T07:31:33.695Z,26.71
2022-08-17T07:34:07.950Z,26.79
2022-08-17T07:36:37.204Z,26.90
2022-08-17T07:39:05.871Z,26.73
2022-08-17T07:41:57.430Z,27.09
2022-08-17T07:44:29.520Z,27.68
2022-08-17T07:47:15.929Z,27.89
2022-08-17T07:49:46.827Z,27.13
2022-08-17T07:52:50.295Z,27.15
2022-08-17T07:55:29.309Z,26.98
2022-08-17T07:57:59.387Z,26.95
2022-08-17T08:00:31.442Z,27.18
2022-08-17T08:03:05.964Z,26.72
2022-08-17T08:05:50.286Z,27.37
2022-08-17T08:08:28.055Z,27.46
2022-08-17T08:11:03.248Z,27.40
2022-08-17T08:13:33.242Z,27.01
2022-08-17T08:16:25.334Z,26.87
2022-08-17T08:18:57.799Z,27.05
2022-08-17T08:21:47.543Z,27.67
2022-08-17T08:24:36.684Z,27.90
2022-08-17T08:27:12.195Z,27.60
2022-08-17T08:29:48.941Z,28.00
2022-08-17T08:32:28.502Z,27.98
2022-08-17T08:35:04.614Z,27.76
2022-08-17T08:37:50.942Z,27.90
2022-08-17T08:40:34.827Z,28.06
2022-08-17T08:43:15.730Z,27.24
2022-08-17T08:45:51.442Z,26.97
2022-08-17T08:48:55.966Z,27.62
2022-08-17T08:51:40.913Z,27.70
2022-08-17T08:54:35.589Z,27.70
2022-08-17T08:57:26.458Z,27.85
2022-08-17T09:00:10.792Z,27.16
2022-08-17T09:03:02.610Z,27.63
2022-08-17T09:05:42.283Z,27.63
2022-08-17T09:08:19.105Z,27.39
2022-08-17T09:10:57.513Z,27.40
2022-08-17T09:13:36.198Z,26.71
2022-08-17T09:16:09.956Z,26.69
2022-08-17T09:19:01.894Z,26.90
2022-08-17T09:21:38.145Z,27.46
2022-08-17T09:24:25.119Z,27.28
2022-08-17T09:26:59.956Z,27.54
2022-08-17T09:29:35.131Z,27.28
2022-08-17T09:32:10.358Z,27.15
2022-08-17T09:34:47.061Z,27.59
2022-08-17T09:37:23.955Z,27.63
2022-08-17T09:40:08.462Z,27.68
2022-08-17T09:42:49.802Z,27.61
2022-08-17T09:45:28.890Z,27.34
2022-08-17T09:48:02.092Z,27.29
2022-08-17T09:51:04.200Z,27.34
2022-08-17T09:53:25.609Z,26.96
2022-08-17T09:56:18.671Z,27.28
2022-08-17T09:59:04.051Z,26.98
2022-08-17T10:01:39.866Z,26.49
2022-08-17T10:04:29.353Z,26.93
2022-08-17T10:07:04.396Z,27.05
2022-08-17T10:09:44.287Z,27.02
2022-08-17T10:12:21.450Z,26.66
2022-08-17T10:15:07.742Z,25.93
2022-08-17T10:17:47.437Z,26.35
2022-08-17T10:20:21.564Z,26.58
2022-08-17T10:23:12.347Z,26.53
2022-08-17T10:26:09.398Z,26.04
2022-08-17T10:28:41.649Z,25.92
2022-08-17T10:34:27.874Z,26.47
2022-08-17T10:37:13.003Z,26.57
2022-08-17T10:39:53.083Z,26.65
2022-08-17T10:42:32.232Z,26.81
2022-08-17T10:45:06.514Z,26.53
2022-08-17T10:48:04.665Z,26.47
2022-08-17T10:50:58.618Z,26.41
2022-08-17T10:53:55.049Z,26.64
2022-08-17T10:56:49.547Z,26.63
2022-08-17T10:59:50.695Z,25.24
2022-08-17T11:02:41.298Z,25.52
2022-08-17T11:05:27.535Z,25.84
2022-08-17T11:08:22.065Z,25.71
2022-08-17T11:11:20.483Z,25.49
2022-08-17T11:14:06.206Z,25.00
2022-08-17T11:16:50.648Z,24.40
2022-08-17T11:19:56.095Z,24.78
2022-08-17T11:22:59.050Z,24.49
2022-08-17T11:25:39.251Z,24.63
2022-08-17T11:28:15.038Z,24.03
2022-08-17T11:30:48.582Z,24.17
2022-08-17T11:33:54.203Z,23.98
2022-08-17T11:36:49.866Z,24.64
2022-08-17T11:39:45.131Z,24.86
2022-08-17T11:42:28.636Z,24.89
2022-08-17T11:44:58.961Z,24.07
2022-08-17T11:48:23.653Z,24.46
2022-08-17T11:51:11.240Z,24.01
2022-08-17T11:54:30.974Z,24.71
2022-08-17T11:56:52.862Z,24.67
2022-08-17T12:00:02.882Z,24.59
2022-08-17T12:02:47.422Z,24.91
2022-08-17T12:05:34.709Z,24.80
2022-08-17T12:08:17.667Z,25.04
2022-08-17T12:11:18.900Z,24.64
2022-08-17T12:15:12.672Z,25.00
2022-08-17T12:17:46.682Z,25.23
2022-08-17T12:20:24.075Z,25.17
2022-08-17T12:23:01.223Z,25.61
2022-08-17T12:25:36.669Z,25.76
2022-08-17T12:28:07.667Z,26.16
2022-08-17T12:30:37.747Z,26.12
2022-08-17T12:33:25.665Z,26.27
2022-08-17T12:35:59.621Z,26.40
2022-08-17T12:38:33.074Z,25.97
2022-08-17T12:41:22.345Z,26.13
2022-08-17T12:43:58.637Z,26.26
2022-08-17T12:46:26.523Z,26.35
2022-08-17T12:49:12.503Z,26.30
2022-08-17T12:51:44.360Z,26.57
2022-08-17T12:54:24.224Z,25.98
2022-08-17T12:56:52.401Z,26.06
2022-08-17T12:59:30.412Z,24.90
2022-08-17T13:01:59.071Z,25.46
2022-08-17T13:04:29.722Z,24.40
2022-08-17T13:06:59.930Z,25.05
2022-08-17T13:09:40.159Z,24.84
2022-08-17T13:12:09.137Z,24.62
2022-08-17T13:14:37.155Z,25.05
2022-08-17T13:17:09.888Z,25.45
2022-08-17T13:19:49.254Z,26.63
2022-08-17T13:22:18.567Z,26.57
2022-08-17T13:24:54.393Z,25.49
2022-08-17T13:27:25.089Z,26.13
2022-08-17T13:29:57.315Z,27.01
2022-08-17T13:32:39.963Z,27.61
2022-08-17T13:35:39.165Z,28.08
2022-08-17T13:38:14.033Z,28.60
2022-08-17T13:40:59.677Z,28.85
2022-08-17T13:43:45.581Z,28.92
2022-08-17T13:46:21.185Z,28.88
2022-08-17T13:48:59.986Z,29.23
2022-08-17T13:51:33.572Z,29.32
2022-08-17T13:54:09.447Z,28.75
2022-08-17T13:56:57.577Z,28.32
2022-08-17T13:59:54.240Z,29.28
2022-08-17T14:02:20.323Z,28.70
2022-08-17T14:04:49.110Z,29.51
2022-08-17T14:07:32.077Z,29.28
2022-08-17T14:10:03.060Z,29.50
2022-08-17T14:12:34.284Z,29.79
2022-08-17T14:15:03.313Z,29.24
2022-08-17T14:17:36.335Z,28.76
2022-08-17T14:20:09.175Z,29.17
2022-08-17T14:22:42.177Z,28.23
2022-08-17T14:25:21.525Z,28.54
2022-08-17T14:27:53.127Z,28.84
2022-08-17T14:30:23.591Z,28.37
2022-08-17T14:32:52.733Z,29.40
2022-08-17T14:35:23.811Z,29.77
2022-08-17T14:37:54.020Z,29.58
2022-08-17T14:40:24.769Z,29.45
2022-08-17T14:42:55.143Z,29.12
2022-08-17T14:45:30.057Z,29.12
2022-08-17T14:48:03.978Z,28.89
2022-08-17T14:50:35.266Z,28.73
2022-08-17T14:53:06.934Z,29.26
2022-08-17T14:55:40.412Z,29.01
2022-08-17T14:58:08.983Z,28.94
2022-08-17T15:00:37.219Z,28.94
2022-08-17T15:03:06.000Z,29.17
2022-08-17T15:05:37.555Z,29.53
2022-08-17T15:08:08.169Z,29.66
2022-08-17T15:10:37.272Z,29.68
2022-08-17T15:13:05.237Z,29.06
2022-08-17T15:15:33.125Z,28.93
2022-08-17T15:18:02.402Z,28.83
2022-08-17T15:20:31.232Z,28.36
2022-08-17T15:22:59.692Z,28.73
2022-08-17T15:25:31.655Z,28.57
2022-08-17T15:28:00.947Z,28.45
2022-08-17T15:30:29.859Z,28.78
2022-08-17T15:33:01.750Z,29.03
2022-08-17T15:35:33.043Z,29.33
2022-08-17T15:38:10.755Z,29.48
2022-08-17T15:40:44.080Z,29.58
2022-08-17T15:43:14.288Z,29.27
2022-08-17T15:45:43.038Z,28.89
2022-08-17T15:48:14.208Z,28.90
2022-08-17T15:50:45.060Z,29.01
2022-08-17T15:53:13.018Z,29.26
2022-08-17T15:55:43.898Z,29.21
2022-08-17T15:58:11.817Z,29.39
2022-08-17T16:00:51.592Z,29.28
2022-08-17T16:03:58.445Z,29.27
2022-08-17T16:06:09.516Z,29.36
2022-08-17T16:08:41.601Z,29.26
2022-08-17T16:11:11.998Z,29.22
2022-08-17T16:13:40.717Z,28.64
2022-08-17T16:16:09.388Z,28.70
2022-08-17T16:18:38.793Z,28.51
2022-08-17T16:21:31.315Z,28.39
2022-08-17T16:24:13.096Z,28.62
2022-08-17T16:26:43.480Z,28.58
2022-08-17T16:29:11.683Z,28.53
2022-08-17T16:31:40.062Z,28.33
2022-08-17T16:34:15.975Z,28.09
2022-08-17T16:36:51.822Z,27.88
2022-08-17T16:39:23.813Z,27.61
2022-08-17T16:41:53.001Z,27.50
2022-08-17T16:44:21.938Z,28.04
2022-08-17T16:46:50.445Z,27.96
2022-08-17T16:49:36.088Z,27.59
2022-08-17T16:52:09.823Z,27.47
2022-08-17T16:54:39.516Z,27.39
2022-08-17T16:57:08.785Z,27.41
2022-08-17T16:59:40.857Z,27.42
2022-08-17T17:02:14.230Z,27.69
2022-08-17T17:04:49.169Z,27.61
2022-08-17T17:07:34.818Z,27.59
2022-08-17T17:10:06.671Z,27.12
2022-08-17T17:13:02.397Z,27.01
2022-08-17T17:15:51.665Z,27.19
2022-08-17T17:18:24.257Z,27.61
2022-08-17T17:20:57.284Z,27.75
2022-08-17T17:23:38.322Z,27.29
2022-08-17T17:26:20.671Z,26.91
2022-08-17T17:29:02.234Z,26.89
2022-08-17T17:31:38.279Z,26.93
2022-08-17T17:34:11.104Z,26.76
2022-08-17T17:36:41.967Z,26.78
2022-08-17T17:39:14.340Z,27.16
2022-08-17T17:41:47.642Z,27.08
2022-08-17T17:44:21.325Z,26.59
2022-08-17T17:46:54.252Z,26.65
2022-08-17T17:49:22.250Z,26.45
2022-08-17T17:52:10.136Z,26.50
2022-08-17T17:54:56.699Z,26.66
2022-08-17T17:57:55.818Z,26.65
2022-08-17T18:00:27.184Z,26.53
2022-08-17T18:03:08.569Z,26.78
2022-08-17T18:06:01.153Z,26.81
2022-08-17T18:08:48.983Z,26.66
2022-08-17T18:11:35.027Z,26.66
2022-08-17T18:14:18.401Z,26.53
2022-08-17T18:16:48.055Z,26.10
2022-08-17T18:19:20.041Z,26.34
2022-08-17T18:21:53.938Z,26.49
2022-08-17T18:24:31.369Z,26.46
2022-08-17T18:27:02.212Z,26.43
2022-08-17T18:29:43.608Z,26.27
2022-08-17T18:32:32.350Z,25.69
2022-08-17T18:35:27.695Z,25.96
2022-08-17T18:37:57.657Z,25.99
2022-08-17T18:40:38.242Z,26.02
2022-08-17T18:43:13.277Z,25.83
2022-08-17T18:45:45.898Z,25.85
2022-08-17T18:48:33.353Z,25.87
2022-08-17T18:51:06.142Z,25.73
2022-08-17T18:53:38.459Z,25.69
2022-08-17T18:56:33.746Z,25.69
2022-08-17T18:59:11.333Z,25.69
2022-08-17T19:02:00.809Z,25.61
2022-08-17T19:04:35.178Z,25.54
2022-08-17T19:07:12.903Z,25.51
2022-08-17T19:09:46.414Z,25.52
2022-08-17T19:12:27.386Z,25.51
2022-08-17T19:14:57.871Z,25.47
2022-08-17T19:17:35.357Z,25.51
2022-08-17T19:20:11.405Z,25.59
2022-08-17T19:23:03.235Z,25.64
2022-08-17T19:25:34.793Z,25.66
2022-08-17T19:28:21.599Z,25.64
2022-08-17T19:30:55.838Z,25.56
2022-08-17T19:33:23.955Z,25.44
2022-08-17T19:36:02.906Z,25.33
2022-08-17T19:38:42.794Z,25.37
2022-08-17T19:41:20.292Z,25.35
2022-08-17T19:44:10.103Z,25.28
2022-08-17T19:46:48.705Z,24.97
2022-08-17T19:49:33.240Z,25.06
2022-08-17T19:52:34.207Z,24.96
2022-08-17T19:55:08.346Z,24.93
2022-08-17T19:57:47.264Z,24.82
2022-08-17T20:00:16.894Z,24.73
2022-08-17T20:02:57.492Z,24.68
2022-08-17T20:05:29.528Z,24.79
2022-08-17T20:08:04.219Z,24.78
2022-08-17T20:10:40.377Z,24.75
2022-08-17T20:13:12.796Z,24.68
2022-08-17T20:15:42.985Z,24.63
2022-08-17T20:18:18.408Z,24.72
2022-08-17T20:20:54.757Z,24.76
2022-08-17T20:23:41.044Z,24.79
2022-08-17T20:26:22.964Z,24.77
2022-08-17T20:29:09.969Z,24.63
2022-08-17T20:31:44.451Z,24.65
2022-08-17T20:34:36.993Z,24.67
2022-08-17T20:37:09.216Z,24.68
2022-08-17T20:39:41.702Z,24.60
2022-08-17T20:42:28.393Z,24.61
2022-08-17T20:44:58.776Z,24.54
2022-08-17T20:47:29.889Z,24.53
2022-08-17T20:50:03.043Z,24.50
2022-08-17T20:52:48.074Z,24.49
2022-08-17T20:55:53.500Z,24.51
2022-08-17T20:58:48.672Z,24.49
2022-08-17T21:01:24.289Z,24.30
2022-08-17T21:03:54.363Z,24.23
2022-08-17T21:06:24.969Z,24.31
2022-08-17T21:08:58.567Z,24.18
2022-08-17T21:12:04.119Z,24.09
2022-08-17T21:14:59.633Z,24.15
2022-08-17T21:17:43.961Z,24.04
2022-08-17T21:20:32.312Z,24.03
2022-08-17T21:23:27.201Z,24.12
2022-08-17T21:26:13.701Z,24.22
2022-08-17T21:29:00.396Z,24.14
2022-08-17T21:31:35.555Z,23.78
2022-08-17T21:34:27.635Z,24.01
2022-08-17T21:36:57.713Z,24.14
2022-08-17T21:39:41.681Z,24.19
2022-08-17T21:42:12.951Z,24.19
2022-08-17T21:44:47.501Z,24.20
2022-08-17T21:47:21.024Z,24.17
2022-08-17T21:49:49.280Z,24.18
2022-08-17T21:52:21.085Z,24.19
2022-08-17T21:54:52.442Z,24.23
2022-08-17T21:57:23.273Z,24.23
2022-08-17T21:59:59.595Z,24.22
2022-08-17T22:02:33.232Z,24.23
2022-08-17T22:05:10.198Z,24.17
2022-08-17T22:07:43.992Z,24.18
2022-08-17T22:10:31.086Z,24.22
2022-08-17T22:13:17.172Z,24.24
2022-08-17T22:15:51.417Z,24.26
2022-08-17T22:18:26.180Z,24.25
2022-08-17T22:20:57.871Z,24.25
2022-08-17T22:23:46.796Z,24.21
2022-08-17T22:26:17.776Z,23.68
2022-08-17T22:28:48.872Z,23.35
2022-08-17T22:31:20.349Z,23.22
2022-08-17T22:33:49.959Z,22.94
2022-08-17T22:36:25.015Z,22.76
2022-08-17T22:38:55.318Z,22.76
2022-08-17T22:41:34.354Z,22.80
2022-08-17T22:44:14.009Z,22.76
2022-08-17T22:46:57.074Z,22.92
2022-08-17T22:49:31.066Z,22.66
2022-08-17T22:52:32.677Z,22.59
2022-08-17T22:55:22.043Z,22.99
2022-08-17T22:58:08.217Z,23.12
2022-08-17T23:00:40.058Z,23.04
2022-08-17T23:03:15.336Z,22.57
2022-08-17T23:05:45.608Z,22.63
2022-08-17T23:08:14.842Z,22.61
2022-08-17T23:10:46.466Z,22.75
2022-08-17T23:13:14.412Z,22.49
2022-08-17T23:15:44.529Z,22.72
2022-08-17T23:18:13.710Z,22.67
2022-08-17T23:20:42.444Z,22.59
2022-08-17T23:23:12.536Z,22.36
2022-08-17T23:25:44.392Z,22.35
2022-08-17T23:28:12.389Z,22.44
2022-08-17T23:30:46.599Z,22.24
2022-08-17T23:33:30.891Z,22.32
2022-08-17T23:35:59.556Z,22.51
2022-08-17T23:38:28.684Z,22.06
2022-08-17T23:40:59.904Z,21.94
2022-08-17T23:43:29.646Z,21.74
2022-08-17T23:45:59.678Z,22.11
2022-08-17T23:48:35.831Z,22.07
2022-08-17T23:51:09.137Z,22.05
2022-08-17T23:53:40.349Z,22.00
2022-08-17T23:56:11.091Z,22.32
2022-08-17T23:58:42.258Z,22.20
